createdAt,value
2022-10-05T00:00:43.805Z,10.02
2022-10-05T00:03:11.705Z,9.81
2022-10-05T00:05:38.620Z,10.00
2022-10-05T00:08:14.113Z,9.96
2022-10-05T00:10:42.338Z,9.93
2022-10-05T00:13:13.984Z,9.89
2022-10-05T00:15:40.531Z,9.90
2022-10-05T00:18:21.341Z,9.92
2022-10-05T00:20:48.699Z,9.87
2022-10-05T00:23:21.470Z,9.90
2022-10-05T00:25:47.841Z,9.90
2022-10-05T00:28:22.915Z,9.65
2022-10-05T00:30:49.382Z,9.70
2022-10-05T00:33:15.779Z,9.99
2022-10-05T00:35:42.126Z,10.01
2022-10-05T00:38:08.441Z,9.75
2022-10-05T00:40:56.952Z,10.10
2022-10-05T00:43:42.037Z,10.12
2022-10-05T00:46:21.252Z,9.69
2022-10-05T00:49:10.090Z,10.16
2022-10-05T00:51:38.612Z,9.66
2022-10-05T00:54:41.423Z,10.19
2022-10-05T00:57:17.318Z,10.16
2022-10-05T01:00:07.929Z,10.13
2022-10-05T01:02:50.140Z,10.14
2022-10-05T01:11:58.063Z,10.05
2022-10-05T01:14:51.621Z,10.03
2022-10-05T01:17:53.194Z,10.02
2022-10-05T01:20:45.712Z,9.98
2022-10-05T01:23:48.242Z,9.98
2022-10-05T01:26:27.474Z,9.96
2022-10-05T01:29:25.326Z,9.94
2022-10-05T01:32:27.581Z,9.95
2022-10-05T01:35:05.775Z,9.90
2022-10-05T01:37:54.525Z,9.90
2022-10-05T01:40:34.971Z,9.91
2022-10-05T01:43:39.422Z,9.90
2022-10-05T01:46:46.103Z,9.89
2022-10-05T01:49:33.318Z,9.89
2022-10-05T01:52:40.269Z,9.88
2022-10-05T01:55:41.795Z,9.86
2022-10-05T01:58:50.949Z,9.84
2022-10-05T02:05:06.991Z,9.78
2022-10-05T02:07:59.460Z,9.78
2022-10-05T02:10:37.777Z,8.73
2022-10-05T02:13:28.465Z,9.29
2022-10-05T02:16:02.211Z,9.42
2022-10-05T02:18:34.951Z,9.69
2022-10-05T02:21:17.537Z,9.73
2022-10-05T02:23:50.739Z,9.74
2022-10-05T02:26:32.988Z,8.70
2022-10-05T02:29:12.913Z,9.51
2022-10-05T02:31:43.974Z,9.71
2022-10-05T02:34:33.417Z,9.68
2022-10-05T02:37:28.766Z,9.68
2022-10-05T02:44:18.497Z,9.69
2022-10-05T02:47:05.025Z,9.69
2022-10-05T02:49:55.530Z,9.71
2022-10-05T02:52:41.372Z,9.76
2022-10-05T02:55:28.895Z,9.59
2022-10-05T03:04:32.377Z,10.14
2022-10-05T03:07:19.387Z,9.70
2022-10-05T03:10:00.784Z,9.64
2022-10-05T03:12:42.481Z,10.16
2022-10-05T03:15:19.026Z,10.17
2022-10-05T03:18:12.479Z,9.94
2022-10-05T03:21:14.311Z,10.22
2022-10-05T03:24:17.117Z,10.23
2022-10-05T03:26:53.504Z,10.23
2022-10-05T03:29:44.386Z,10.24
2022-10-05T03:32:23.897Z,10.24
2022-10-05T03:38:20.466Z,10.21
2022-10-05T03:40:52.226Z,10.21
2022-10-05T03:43:54.042Z,10.25
2022-10-05T03:47:02.296Z,10.27
2022-10-05T03:49:46.429Z,10.25
2022-10-05T03:52:23.450Z,9.95
2022-10-05T03:55:34.380Z,9.13
2022-10-05T03:58:41.589Z,9.64
2022-10-05T04:01:17.335Z,10.03
2022-10-05T04:04:10.512Z,9.94
2022-10-05T04:06:49.763Z,9.94
2022-10-05T04:09:32.984Z,9.94
2022-10-05T04:12:35.599Z,10.04
2022-10-05T04:15:34.926Z,10.14
2022-10-05T04:18:06.930Z,9.51
2022-10-05T04:20:54.727Z,9.98
2022-10-05T04:23:53.847Z,9.96
2022-10-05T04:26:41.336Z,10.37
2022-10-05T04:29:52.116Z,10.42
2022-10-05T04:33:39.482Z,10.48
2022-10-05T04:35:48.271Z,10.55
2022-10-05T04:38:47.287Z,10.57
2022-10-05T04:41:51.541Z,10.63
2022-10-05T04:44:40.406Z,10.65
2022-10-05T04:47:26.341Z,10.63
2022-10-05T04:50:26.892Z,10.61
2022-10-05T04:53:10.691Z,10.58
2022-10-05T04:56:15.537Z,10.55
2022-10-05T04:58:48.283Z,10.54
2022-10-05T05:01:36.477Z,10.55
2022-10-05T05:04:27.406Z,10.56
2022-10-05T05:07:24.148Z,10.58
2022-10-05T05:10:21.633Z,10.61
2022-10-05T05:13:35.157Z,10.62
2022-10-05T05:16:21.157Z,10.60
2022-10-05T05:19:26.791Z,10.61
2022-10-05T05:22:18.005Z,10.59
2022-10-05T05:25:42.958Z,10.62
2022-10-05T05:28:33.222Z,10.62
2022-10-05T05:31:28.030Z,10.64
2022-10-05T05:34:43.067Z,10.66
2022-10-05T05:37:47.699Z,10.68
2022-10-05T05:40:27.027Z,10.71
2022-10-05T05:47:02.924Z,10.79
2022-10-05T05:49:39.296Z,10.82
2022-10-05T05:52:30.567Z,10.87
2022-10-05T05:55:08.937Z,10.67
2022-10-05T05:58:15.590Z,10.96
2022-10-05T06:00:49.084Z,10.78
2022-10-05T06:03:25.980Z,10.63
2022-10-05T06:06:00.597Z,11.11
2022-10-05T06:08:50.955Z,10.98
2022-10-05T06:11:43.331Z,11.21
2022-10-05T06:14:19.587Z,11.02
2022-10-05T06:16:55.276Z,11.35
2022-10-05T06:19:24.512Z,11.41
2022-10-05T06:22:11.209Z,11.48
2022-10-05T06:24:56.221Z,11.55
2022-10-05T06:27:59.805Z,11.48
2022-10-05T06:30:36.917Z,11.67
2022-10-05T06:33:21.534Z,11.72
2022-10-05T06:36:07.856Z,11.78
2022-10-05T06:38:52.743Z,10.87
2022-10-05T06:41:47.355Z,11.90
2022-10-05T06:44:25.859Z,11.97
2022-10-05T06:47:22.805Z,11.98
2022-10-05T06:50:27.612Z,11.77
2022-10-05T06:53:19.904Z,11.82
2022-10-05T06:56:23.983Z,12.17
2022-10-05T06:59:04.688Z,11.94
2022-10-05T07:01:54.894Z,12.29
2022-10-05T07:04:42.844Z,12.35
2022-10-05T07:07:09.098Z,12.40
2022-10-05T07:09:56.398Z,12.44
2022-10-05T07:12:46.160Z,12.52
2022-10-05T07:15:40.331Z,12.58
2022-10-05T07:18:28.058Z,12.69
2022-10-05T07:21:22.314Z,12.71
2022-10-05T07:23:53.999Z,12.77
2022-10-05T07:26:42.575Z,12.84
2022-10-05T07:29:18.166Z,12.88
2022-10-05T07:32:06.295Z,12.90
2022-10-05T07:35:09.914Z,12.94
2022-10-05T07:37:54.608Z,12.80
2022-10-05T07:40:40.515Z,13.01
2022-10-05T07:43:21.845Z,13.04
2022-10-05T07:45:54.801Z,13.06
2022-10-05T07:48:48.542Z,13.13
2022-10-05T07:51:28.930Z,13.17
2022-10-05T07:54:13.018Z,12.28
2022-10-05T07:56:50.040Z,13.28
2022-10-05T07:59:28.632Z,13.08
2022-10-05T08:02:13.288Z,13.35
2022-10-05T08:05:11.957Z,13.48
2022-10-05T08:07:39.269Z,13.41
2022-10-05T08:10:30.099Z,13.74
2022-10-05T08:13:20.024Z,13.81
2022-10-05T08:15:51.926Z,14.02
2022-10-05T08:18:59.181Z,14.13
2022-10-05T08:21:36.338Z,14.31
2022-10-05T08:24:30.206Z,14.48
2022-10-05T08:27:20.075Z,14.72
2022-10-05T08:29:58.612Z,14.87
2022-10-05T08:32:29.727Z,14.92
2022-10-05T08:35:04.225Z,15.19
2022-10-05T08:37:37.332Z,15.36
2022-10-05T08:40:18.822Z,15.48
2022-10-05T08:43:22.966Z,15.45
2022-10-05T08:46:03.932Z,15.71
2022-10-05T08:48:36.035Z,15.72
2022-10-05T08:51:24.356Z,15.73
2022-10-05T08:54:24.605Z,15.77
2022-10-05T08:57:15.032Z,15.54
2022-10-05T09:00:03.180Z,15.83
2022-10-05T09:03:08.887Z,15.91
2022-10-05T09:05:58.765Z,15.89
2022-10-05T09:08:51.237Z,15.93
2022-10-05T09:11:37.314Z,15.99
2022-10-05T09:14:39.246Z,16.27
2022-10-05T09:17:42.903Z,16.27
2022-10-05T09:20:52.032Z,15.97
2022-10-05T09:23:39.037Z,16.16
2022-10-05T09:26:11.397Z,16.41
2022-10-05T09:29:02.056Z,16.18
2022-10-05T09:31:34.249Z,16.50
2022-10-05T09:34:15.385Z,16.48
2022-10-05T09:36:48.111Z,16.43
2022-10-05T09:39:20.444Z,16.48
2022-10-05T09:42:24.129Z,16.58
2022-10-05T09:45:29.655Z,16.56
2022-10-05T09:48:28.268Z,16.39
2022-10-05T09:51:07.546Z,16.46
2022-10-05T09:53:42.915Z,16.83
2022-10-05T09:59:13.653Z,16.90
2022-10-05T10:02:22.985Z,16.82
2022-10-05T10:05:07.713Z,17.07
2022-10-05T10:07:56.366Z,17.00
2022-10-05T10:11:03.993Z,17.20
2022-10-05T10:14:00.119Z,17.46
2022-10-05T10:16:56.974Z,17.79
2022-10-05T10:19:45.139Z,18.09
2022-10-05T10:22:30.039Z,18.09
2022-10-05T10:25:16.539Z,18.03
2022-10-05T10:27:54.154Z,18.14
2022-10-05T10:31:04.683Z,17.56
2022-10-05T10:33:53.713Z,17.94
2022-10-05T10:37:03.597Z,18.08
2022-10-05T10:39:33.223Z,18.15
2022-10-05T10:42:26.852Z,18.22
2022-10-05T10:45:31.608Z,18.01
2022-10-05T10:48:08.970Z,18.48
2022-10-05T10:51:03.039Z,18.89
2022-10-05T10:53:45.977Z,18.99
2022-10-05T10:56:46.197Z,19.37
2022-10-05T10:59:52.712Z,19.13
2022-10-05T11:02:28.771Z,19.56
2022-10-05T11:05:32.766Z,19.85
2022-10-05T11:08:20.441Z,19.78
2022-10-05T11:11:17.831Z,19.91
2022-10-05T11:14:02.630Z,19.95
2022-10-05T11:16:37.960Z,20.10
2022-10-05T11:19:35.197Z,20.02
2022-10-05T11:22:51.648Z,19.97
2022-10-05T11:25:36.327Z,19.96
2022-10-05T11:28:22.488Z,19.93
2022-10-05T11:31:28.199Z,19.97
2022-10-05T11:34:06.714Z,20.12
2022-10-05T11:36:51.714Z,20.24
2022-10-05T11:39:20.972Z,20.40
2022-10-05T11:42:25.416Z,20.60
2022-10-05T11:45:22.987Z,20.22
2022-10-05T11:48:15.707Z,20.56
2022-10-05T11:51:20.765Z,20.77
2022-10-05T11:54:06.593Z,20.41
2022-10-05T11:56:38.530Z,21.06
2022-10-05T11:59:26.589Z,21.05
2022-10-05T12:02:04.187Z,20.98
2022-10-05T12:04:45.824Z,21.00
2022-10-05T12:07:34.866Z,21.18
2022-10-05T12:10:31.011Z,20.95
2022-10-05T12:13:03.148Z,21.24
2022-10-05T12:15:54.415Z,21.20
2022-10-05T12:18:53.538Z,21.36
2022-10-05T12:21:43.075Z,21.62
2022-10-05T12:24:21.259Z,21.52
2022-10-05T12:26:58.517Z,21.47
2022-10-05T12:29:35.246Z,21.70
2022-10-05T12:32:17.396Z,21.88
2022-10-05T12:35:01.913Z,21.67
2022-10-05T12:37:31.435Z,21.87
2022-10-05T12:40:35.408Z,21.96
2022-10-05T12:43:10.612Z,22.05
2022-10-05T12:45:58.513Z,22.07
2022-10-05T12:48:43.536Z,22.02
2022-10-05T12:51:20.061Z,22.18
2022-10-05T12:54:24.547Z,22.15
2022-10-05T12:56:56.865Z,22.21
2022-10-05T12:59:38.879Z,22.24
2022-10-05T13:02:14.098Z,22.30
2022-10-05T13:04:59.545Z,22.19
2022-10-05T13:07:59.856Z,22.16
2022-10-05T13:10:36.091Z,22.01
2022-10-05T13:13:10.779Z,22.18
2022-10-05T13:16:21.785Z,21.82
2022-10-05T13:19:14.111Z,22.21
2022-10-05T13:21:46.089Z,22.29
2022-10-05T13:24:22.910Z,22.13
2022-10-05T13:26:58.315Z,22.31
2022-10-05T13:29:56.409Z,22.31
2022-10-05T13:32:34.035Z,22.09
2022-10-05T13:35:23.640Z,21.87
2022-10-05T13:38:13.318Z,21.91
2022-10-05T13:41:00.225Z,22.20
2022-10-05T13:43:33.325Z,22.20
2022-10-05T13:46:21.742Z,22.09
2022-10-05T13:48:59.879Z,22.16
2022-10-05T13:51:47.534Z,22.26
2022-10-05T13:54:22.836Z,21.87
2022-10-05T13:56:56.659Z,22.04
2022-10-05T13:59:38.471Z,22.21
2022-10-05T14:02:09.749Z,22.30
2022-10-05T14:05:01.024Z,22.18
2022-10-05T14:07:36.357Z,22.31
2022-10-05T14:10:10.282Z,22.38
2022-10-05T14:12:40.790Z,22.32
2022-10-05T14:15:22.497Z,22.24
2022-10-05T14:17:51.770Z,21.34
2022-10-05T14:20:31.295Z,22.13
2022-10-05T14:23:00.948Z,22.14
2022-10-05T14:25:30.194Z,21.98
2022-10-05T14:28:08.814Z,22.10
2022-10-05T14:30:35.385Z,21.90
2022-10-05T14:33:04.699Z,21.87
2022-10-05T14:35:54.159Z,21.74
2022-10-05T14:38:29.294Z,21.80
2022-10-05T14:41:14.531Z,21.78
2022-10-05T14:43:50.621Z,21.60
2022-10-05T14:46:18.142Z,21.71
2022-10-05T14:48:47.579Z,21.70
2022-10-05T14:51:31.842Z,21.43
2022-10-05T14:54:00.482Z,21.25
2022-10-05T14:56:49.596Z,21.51
2022-10-05T14:59:24.865Z,21.66
2022-10-05T15:01:53.893Z,20.68
2022-10-05T15:04:34.318Z,21.71
2022-10-05T15:07:24.948Z,21.49
2022-10-05T15:10:35.174Z,21.35
2022-10-05T15:13:24.016Z,21.31
2022-10-05T15:16:12.181Z,21.31
2022-10-05T15:18:48.888Z,21.08
2022-10-05T15:21:20.930Z,21.37
2022-10-05T15:23:54.356Z,21.11
2022-10-05T15:26:26.598Z,21.32
2022-10-05T15:29:14.396Z,21.29
2022-10-05T15:31:52.276Z,21.24
2022-10-05T15:34:33.672Z,21.21
2022-10-05T15:37:10.175Z,21.10
2022-10-05T15:39:59.198Z,20.81
2022-10-05T15:42:43.135Z,20.78
2022-10-05T15:45:19.541Z,20.86
2022-10-05T15:47:52.899Z,20.65
2022-10-05T15:50:26.618Z,20.98
2022-10-05T15:52:56.079Z,20.92
2022-10-05T15:55:35.514Z,20.94
2022-10-05T15:58:27.778Z,20.88
2022-10-05T16:01:28.962Z,20.79
2022-10-05T16:04:10.830Z,20.83
2022-10-05T16:07:09.922Z,20.68
2022-10-05T16:09:45.182Z,20.61
2022-10-05T16:12:29.005Z,20.50
2022-10-05T16:15:16.122Z,20.36
2022-10-05T16:18:16.538Z,19.81
2022-10-05T16:21:12.998Z,20.16
2022-10-05T16:23:58.119Z,19.84
2022-10-05T16:26:24.368Z,20.03
2022-10-05T16:28:59.436Z,19.90
2022-10-05T16:31:41.230Z,19.81
2022-10-05T16:34:32.241Z,19.18
2022-10-05T16:37:20.293Z,19.63
2022-10-05T16:39:57.558Z,19.49
2022-10-05T16:42:39.405Z,19.19
2022-10-05T16:45:44.435Z,19.27
2022-10-05T16:48:26.623Z,19.07
2022-10-05T16:50:55.928Z,19.20
2022-10-05T16:53:34.701Z,19.13
2022-10-05T16:56:05.944Z,19.04
2022-10-05T16:58:45.073Z,18.89
2022-10-05T17:01:16.720Z,18.74
2022-10-05T17:04:16.320Z,18.33
2022-10-05T17:07:09.058Z,18.50
2022-10-05T17:09:45.043Z,18.00
2022-10-05T17:12:45.991Z,18.21
2022-10-05T17:15:12.318Z,18.13
2022-10-05T17:17:48.952Z,17.57
2022-10-05T17:20:18.231Z,18.08
2022-10-05T17:23:02.039Z,18.09
2022-10-05T17:25:52.509Z,18.00
2022-10-05T17:28:24.465Z,17.94
2022-10-05T17:31:21.565Z,17.81
2022-10-05T17:34:00.254Z,17.72
2022-10-05T17:37:00.570Z,17.66
2022-10-05T17:39:56.126Z,17.60
2022-10-05T17:42:34.723Z,17.52
2022-10-05T17:45:21.300Z,17.57
2022-10-05T17:48:09.629Z,16.62
2022-10-05T17:51:08.528Z,17.10
2022-10-05T17:54:02.690Z,17.41
2022-10-05T17:56:49.565Z,17.44
2022-10-05T17:59:57.481Z,17.48
2022-10-05T18:02:36.708Z,17.57
2022-10-05T18:05:06.769Z,17.55
2022-10-05T18:07:37.631Z,16.74
2022-10-05T18:10:04.599Z,17.54
2022-10-05T18:12:37.088Z,17.55
2022-10-05T18:15:03.691Z,17.54
2022-10-05T18:17:54.758Z,17.52
2022-10-05T18:20:23.960Z,17.48
2022-10-05T18:22:52.921Z,17.35
2022-10-05T18:25:45.790Z,16.77
2022-10-05T18:28:15.818Z,17.46
2022-10-05T18:30:58.520Z,17.18
2022-10-05T18:33:47.665Z,17.20
2022-10-05T18:36:37.546Z,17.49
2022-10-05T18:39:36.092Z,17.45
2022-10-05T18:42:37.614Z,17.44
2022-10-05T18:45:21.305Z,17.38
2022-10-05T18:47:54.444Z,17.46
2022-10-05T18:50:39.429Z,17.46
2022-10-05T18:53:20.490Z,17.02
2022-10-05T18:55:53.284Z,17.19
2022-10-05T18:58:28.746Z,17.06
2022-10-05T19:01:20.487Z,17.11
2022-10-05T19:04:26.952Z,16.72
2022-10-05T19:07:19.498Z,16.91
2022-10-05T19:09:54.937Z,16.93
2022-10-05T19:12:41.632Z,16.99
2022-10-05T19:15:39.199Z,17.03
2022-10-05T19:18:14.746Z,16.23
2022-10-05T19:20:53.261Z,17.05
2022-10-05T19:23:46.751Z,17.07
2022-10-05T19:26:34.201Z,17.18
2022-10-05T19:29:38.793Z,16.91
2022-10-05T19:32:18.479Z,17.25
2022-10-05T19:34:58.923Z,17.31
2022-10-05T19:37:42.398Z,16.81
2022-10-05T19:40:24.302Z,17.35
2022-10-05T19:43:08.068Z,17.33
2022-10-05T19:45:54.285Z,17.12
2022-10-05T19:48:47.378Z,16.87
2022-10-05T19:51:16.644Z,17.38
2022-10-05T19:53:47.132Z,17.09
2022-10-05T19:56:24.632Z,17.28
2022-10-05T19:58:57.369Z,17.33
2022-10-05T20:01:31.438Z,17.31
2022-10-05T20:03:58.428Z,17.31
2022-10-05T20:06:26.746Z,16.98
2022-10-05T20:09:00.240Z,17.11
2022-10-05T20:11:28.558Z,16.89
2022-10-05T20:14:01.071Z,17.38
2022-10-05T20:16:47.658Z,17.43
2022-10-05T20:19:45.821Z,17.37
2022-10-05T20:23:10.413Z,17.27
2022-10-05T20:25:36.988Z,17.02
2022-10-05T20:28:03.431Z,17.30
2022-10-05T20:30:33.888Z,16.42
2022-10-05T20:33:01.509Z,17.09
2022-10-05T20:35:30.564Z,17.52
2022-10-05T20:38:02.081Z,17.55
2022-10-05T20:40:30.051Z,16.93
2022-10-05T20:42:57.616Z,17.52
2022-10-05T20:45:24.399Z,17.41
2022-10-05T20:47:53.644Z,17.01
2022-10-05T20:50:21.125Z,17.47
2022-10-05T20:52:47.459Z,17.23
2022-10-05T20:55:13.954Z,16.64
2022-10-05T20:57:43.326Z,17.64
2022-10-05T21:00:13.493Z,17.62
2022-10-05T21:02:39.933Z,17.41
2022-10-05T21:05:07.647Z,17.66
2022-10-05T21:07:37.208Z,17.26
2022-10-05T21:10:03.967Z,17.70
2022-10-05T21:12:30.689Z,17.47
2022-10-05T21:14:57.442Z,17.80
2022-10-05T21:17:23.816Z,17.79
2022-10-05T21:19:50.171Z,17.77
2022-10-05T21:22:16.680Z,17.38
2022-10-05T21:24:43.048Z,17.25
2022-10-05T21:27:10.061Z,17.42
2022-10-05T21:29:37.008Z,17.48
2022-10-05T21:32:08.251Z,17.07
2022-10-05T21:34:35.029Z,17.55
2022-10-05T21:37:01.361Z,16.61
2022-10-05T21:39:27.805Z,17.54
2022-10-05T21:41:54.206Z,17.46
2022-10-05T21:44:20.578Z,17.40
2022-10-05T21:46:48.163Z,17.34
2022-10-05T21:49:17.532Z,17.21
2022-10-05T21:51:47.445Z,17.08
2022-10-05T21:54:24.926Z,17.34
2022-10-05T21:57:04.338Z,17.31
2022-10-05T21:59:44.112Z,16.89
2022-10-05T22:02:16.105Z,16.42
2022-10-05T22:04:59.620Z,15.94
2022-10-05T22:07:32.868Z,15.34
2022-10-05T22:10:14.652Z,15.65
2022-10-05T22:13:13.761Z,15.52
2022-10-05T22:15:54.717Z,15.36
2022-10-05T22:18:43.934Z,15.32
2022-10-05T22:21:27.132Z,15.08
2022-10-05T22:23:55.987Z,13.89
2022-10-05T22:26:35.061Z,15.06
2022-10-05T22:29:08.909Z,15.10
2022-10-05T22:31:55.621Z,15.11
2022-10-05T22:34:31.919Z,14.73
2022-10-05T22:37:09.437Z,15.06
2022-10-05T22:39:39.331Z,15.05
2022-10-05T22:42:21.351Z,11.89
2022-10-05T22:45:03.474Z,14.12
2022-10-05T22:47:36.593Z,14.77
2022-10-05T22:50:09.589Z,14.00
2022-10-05T22:53:04.409Z,14.32
2022-10-05T22:55:31.082Z,15.18
2022-10-05T22:57:57.561Z,14.92
2022-10-05T23:00:57.545Z,15.20
2022-10-05T23:03:27.427Z,14.76
2022-10-05T23:06:13.786Z,15.31
2022-10-05T23:08:54.561Z,15.36
2022-10-05T23:11:27.718Z,15.33
2022-10-05T23:14:03.164Z,15.38
2022-10-05T23:16:47.544Z,15.46
2022-10-05T23:19:21.697Z,14.18
2022-10-05T23:21:49.136Z,15.07
2022-10-05T23:24:28.105Z,15.35
2022-10-05T23:27:01.285Z,14.80
2022-10-05T23:29:44.148Z,14.02
2022-10-05T23:32:17.770Z,13.99
2022-10-05T23:34:59.751Z,14.90
2022-10-05T23:37:40.083Z,14.93
2022-10-05T23:40:37.613Z,14.64
2022-10-05T23:43:19.018Z,14.25
2022-10-05T23:45:58.704Z,13.76
2022-10-05T23:51:39.298Z,11.27
2022-10-05T23:51:46.894Z,13.61
2022-10-05T23:54:17.211Z,13.60
2022-10-05T23:57:14.779Z,13.67
2022-10-05T23:59:48.527Z,13.51
